OOMS Airport Information

Runway Information
Runway 02 Length 2461 ft width 98 ft
Elevation 0 ft Threshold 0 ft Heading 19
Runway 20 Length 2461 ft Width 98 ft
Elevation 0 ft Threshold 0 ft Heading 199
Runway 08 Length 11775 ft width 148 ft
Elevation 48 ft Threshold 1375 ft Heading 85
Runway 26 Length 11775 ft Width 148 ft
Elevation 26 ft Threshold 0 ft Heading 265
Airport Frequencies
Type A/D Name APP Frequency 121.2 MHZ
Type APP Name RADAR Frequency 121.2 MHZ
Type ATIS Name ATIS Frequency 126.8 MHZ
Type GND Name GND Frequency 121.8 MHZ
Type TWR Name TWR Frequency 118.4 MHZ
Airport Navaids
Type VOR-DME Name Seeb Frequency 114500 KHZ
Type NDB Name Seeb Frequency 318 KHZ
Airport Weather Information & NOTAM
ADDS - METARS form results

(0136 UTC 23 April 2018)
 
METAR text: OOMS 230050Z 29002KT CAVOK 25/16 Q1010 WS R08L NOSIG
Conditions at: OOMS (SEEB INTL/MUSCAT, OM) observed 0050 UTC 23 April 2018
Temperature: 25.0°C (77°F)
Dewpoint: 16.0°C (61°F) [RH = 57%]
Pressure (altimeter): 29.82 inches Hg (1010.0 mb)
Winds: from the WNW (290 degrees) at 2 MPH (2 knots; 1.0 m/s)
Visibility: 6 or more miles (10+ km)
Ceiling: ceiling and visibility are OK
Clouds: unknown
Weather: no significant weather observed at this time